Salt Lake City, Utah
Traffic Map
Current Weather Conditions
Salt Lake City, Utah
Overcast Haze
Overcast
21°
Feels Like: 21°
Wind Chill: 21° Ceiling: 7000
Heat Index: 21° Visibility: 6mi
Dew Point: 16° Wind: 14mph
Humidity: 71% Direction: 350° (N)
Pressure: 29.94in Gusts: 0mph
Raw Report DataKSLC 222110Z 35012KT 6SM HZ SCT045CB BKN070 OVC090 21/16 A2994 RMK AO2 PK WND 33034/2057 RAE10 TSE09 OCNL LTGICCG NE TS NE MOV NE CB DSNT ALQDS P0004 T02110156 $
Traffic Incident Summary
Active as of:
Severity:
Category:
InformationThere was an issue retrieving the traffic information for this location. Please try a different location or try again shortly.
Advertisements
Track Severe Weather on mobile